Time;durP1;ratioP1;P1;durP2;ratioP2;P2;SDS_P1;SDS_P2;PMS_P1;PMS_P2;Temp;Humidity;BMP_temperature;BMP_pressure;BME280_temperature;BME280_humidity;BME280_pressure;Samples;Min_cycle;Max_cycle;Signal;HPM_P1;HPM_P2
2024/01/24 00:02:15;;;;;;;3.17;1.50;;;;;;;9.36;67.74;98843.47;4996019;28;20211;-76
2024/01/24 00:04:43;;;;;;;2.75;1.20;;;;;;;9.29;68.09;98828.97;4997358;28;20298;-76
2024/01/24 00:07:09;;;;;;;5.28;1.70;;;;;;;9.29;67.91;98818.19;4998249;28;20576;-76
2024/01/24 00:09:36;;;;;;;4.63;1.33;;;;;;;9.27;67.93;98819.38;4995973;28;20202;-76
2024/01/24 00:12:03;;;;;;;3.60;1.40;;;;;;;9.29;68.09;98818.19;5000325;28;20199;-76
2024/01/24 00:14:30;;;;;;;4.65;1.42;;;;;;;9.28;68.05;98805.69;4999440;28;20305;-76
2024/01/24 00:16:56;;;;;;;2.20;1.45;;;;;;;9.35;67.94;98795.88;4995002;28;20291;-76
2024/01/24 00:19:23;;;;;;;3.17;1.25;;;;;;;9.41;67.52;98780.81;4997508;28;20556;-76
2024/01/24 00:21:51;;;;;;;4.05;1.20;;;;;;;9.37;67.62;98774.94;4992530;28;20207;-76
2024/01/24 00:24:17;;;;;;;2.33;1.15;;;;;;;9.51;67.32;98777.88;4997967;28;20199;-76
2024/01/24 00:26:44;;;;;;;3.30;1.50;;;;;;;9.48;67.25;98778.22;4997366;28;20233;-76
2024/01/24 00:29:10;;;;;;;3.83;1.85;;;;;;;9.50;67.46;98760.00;4996639;28;20210;-75
2024/01/24 00:31:37;;;;;;;3.13;1.20;;;;;;;9.52;67.51;98768.75;4993415;28;20194;-76
2024/01/24 00:34:04;;;;;;;3.13;1.25;;;;;;;9.59;67.44;98764.34;4993159;28;20190;-76
2024/01/24 00:36:31;;;;;;;3.67;1.42;;;;;;;9.57;67.57;98761.81;4996704;28;20209;-76
2024/01/24 00:38:59;;;;;;;5.50;1.63;;;;;;;9.63;67.34;98754.84;4994922;28;20217;-76
2024/01/24 00:41:25;;;;;;;3.35;1.40;;;;;;;9.59;67.63;98743.56;4997580;28;20222;-77
2024/01/24 00:43:52;;;;;;;5.18;1.60;;;;;;;9.64;67.36;98751.97;4996827;28;20195;-76
2024/01/24 00:46:18;;;;;;;6.30;1.45;;;;;;;9.68;67.49;98769.53;4997225;28;20321;-76
2024/01/24 00:48:45;;;;;;;3.33;1.45;;;;;;;9.68;67.46;98766.81;4997763;28;20203;-77
2024/01/24 00:51:11;;;;;;;4.15;1.25;;;;;;;9.75;67.49;98748.84;5001158;28;20203;-76
2024/01/24 00:53:38;;;;;;;2.10;1.08;;;;;;;9.76;67.73;98777.56;4998058;28;20684;-76
2024/01/24 00:56:07;;;;;;;4.63;2.50;;;;;;;9.80;67.59;98782.59;4997327;28;20580;-76
2024/01/24 00:58:33;;;;;;;2.92;1.55;;;;;;;9.83;67.10;98772.28;4995345;28;20205;-76
2024/01/24 01:01:00;;;;;;;4.18;1.40;;;;;;;9.86;67.05;98763.81;4999448;28;20209;-76
2024/01/24 01:03:27;;;;;;;2.67;1.23;;;;;;;9.83;67.37;98761.47;4999265;28;20258;-77
2024/01/24 01:05:53;;;;;;;4.40;1.33;;;;;;;9.83;67.17;98756.06;4983995;28;20703;-76
2024/01/24 01:08:20;;;;;;;3.17;1.60;;;;;;;9.88;67.05;98759.06;5002146;28;20345;-77
2024/01/24 01:10:46;;;;;;;3.35;1.50;;;;;;;9.85;66.77;98754.03;5001453;28;20230;-76
2024/01/24 01:13:14;;;;;;;3.30;1.60;;;;;;;9.85;66.93;98739.66;5016382;28;20294;-76
2024/01/24 01:15:41;;;;;;;3.35;1.58;;;;;;;9.82;67.17;98757.06;4984947;28;20210;-76
2024/01/24 01:18:08;;;;;;;3.28;1.60;;;;;;;9.89;66.99;98738.28;5000109;28;20213;-76
2024/01/24 01:20:34;;;;;;;3.05;1.00;;;;;;;9.84;66.95;98733.41;5015894;28;20210;-77
2024/01/24 01:23:01;;;;;;;3.17;1.33;;;;;;;9.89;66.90;98739.13;5001248;28;20215;-76
2024/01/24 01:25:27;;;;;;;2.88;1.10;;;;;;;9.95;66.64;98730.28;4997425;28;20205;-76
2024/01/24 01:27:54;;;;;;;4.40;1.40;;;;;;;9.98;66.30;98727.22;5000712;28;20233;-76
2024/01/24 01:30:23;;;;;;;2.78;1.20;;;;;;;10.01;66.25;98737.69;5002118;28;20558;-76
2024/01/24 01:32:50;;;;;;;5.20;1.10;;;;;;;10.00;66.64;98730.59;4997844;28;20289;-77
2024/01/24 01:35:16;;;;;;;2.17;1.25;;;;;;;9.96;66.68;98734.69;4999046;28;20214;-77
2024/01/24 01:37:43;;;;;;;3.80;1.10;;;;;;;10.05;66.73;98741.72;5000566;28;20199;-76
2024/01/24 01:40:10;;;;;;;2.55;1.20;;;;;;;10.05;66.83;98732.75;5002584;28;20191;-76
2024/01/24 01:42:37;;;;;;;5.60;1.80;;;;;;;10.04;67.23;98744.59;5000069;28;20210;-76
2024/01/24 01:45:04;;;;;;;3.97;1.60;;;;;;;10.12;66.32;98747.22;5016336;28;20194;-77
2024/01/24 01:47:32;;;;;;;3.55;1.30;;;;;;;10.08;66.64;98725.09;5001668;28;20235;-76
2024/01/24 01:49:59;;;;;;;2.65;1.30;;;;;;;10.17;66.27;98727.72;4998490;28;20279;-76
2024/01/24 01:52:25;;;;;;;3.90;1.35;;;;;;;10.22;65.89;98737.03;4999307;28;20652;-76
2024/01/24 01:54:52;;;;;;;2.42;1.02;;;;;;;10.15;66.21;98727.06;5009582;28;20369;-77
2024/01/24 01:57:18;;;;;;;3.30;1.23;;;;;;;10.18;66.18;98742.94;5003306;28;20207;-76
2024/01/24 01:59:45;;;;;;;2.00;1.10;;;;;;;10.21;66.05;98729.94;5008535;28;20294;-76
2024/01/24 02:02:13;;;;;;;4.05;1.30;;;;;;;10.19;66.10;98726.56;5007350;28;20217;-77
2024/01/24 02:04:41;;;;;;;3.65;1.50;;;;;;;10.26;66.03;98723.97;5000067;28;20200;-77
2024/01/24 02:07:07;;;;;;;2.80;1.15;;;;;;;10.24;66.16;98734.13;4999625;28;20223;-77
2024/01/24 02:09:35;;;;;;;2.83;1.10;;;;;;;10.23;66.20;98730.59;4999901;28;20210;-76
2024/01/24 02:12:01;;;;;;;2.20;0.90;;;;;;;10.25;66.21;98738.53;4998690;28;20206;-76
2024/01/24 02:14:28;;;;;;;3.20;1.20;;;;;;;10.22;66.10;98722.66;5000149;28;20231;-76
2024/01/24 02:16:55;;;;;;;1.40;0.90;;;;;;;10.24;66.29;98707.09;5018091;28;20224;-77
2024/01/24 02:19:22;;;;;;;2.75;1.20;;;;;;;10.25;66.46;98695.25;4997534;28;20298;-77
2024/01/24 02:21:50;;;;;;;5.63;1.48;;;;;;;10.28;66.39;98689.47;4995488;28;20553;-76
2024/01/24 02:24:18;;;;;;;2.33;1.30;;;;;;;10.11;67.08;98700.41;4996682;28;20786;-77
2024/01/24 02:26:44;;;;;;;4.72;1.20;;;;;;;10.22;66.94;98696.44;4995815;28;20592;-76
2024/01/24 02:29:11;;;;;;;3.08;1.35;;;;;;;10.21;67.10;98696.63;4997358;28;20294;-77
2024/01/24 02:31:38;;;;;;;3.03;1.10;;;;;;;10.24;67.01;98694.41;4996095;28;20292;-76
2024/01/24 02:34:05;;;;;;;4.38;1.17;;;;;;;10.26;66.99;98686.94;4986030;28;20208;-77
2024/01/24 02:36:31;;;;;;;3.63;1.13;;;;;;;10.33;66.79;98678.94;4994288;28;20831;-77
2024/01/24 02:38:58;;;;;;;6.57;1.65;;;;;;;10.24;67.09;98680.03;4999285;28;20207;-77
2024/01/24 02:41:25;;;;;;;1.88;1.05;;;;;;;10.18;66.95;98680.72;4997244;28;20215;-77
2024/01/24 02:43:52;;;;;;;2.53;1.05;;;;;;;10.20;67.29;98676.00;4997487;28;20234;-77
2024/01/24 02:46:19;;;;;;;3.65;1.10;;;;;;;10.18;66.75;98673.47;4999868;28;20246;-76
2024/01/24 02:48:45;;;;;;;2.45;1.20;;;;;;;10.15;67.05;98678.38;4999392;28;20309;-77
2024/01/24 02:51:12;;;;;;;2.83;1.20;;;;;;;10.19;66.96;98669.75;4994880;28;20217;-76
2024/01/24 02:53:39;;;;;;;2.50;1.02;;;;;;;10.14;66.91;98671.31;4997221;28;20207;-77
2024/01/24 02:56:06;;;;;;;3.55;1.10;;;;;;;10.16;66.88;98669.25;4999112;28;20290;-76
2024/01/24 02:58:34;;;;;;;3.55;1.15;;;;;;;10.05;66.88;98666.00;4997344;28;20228;-77
2024/01/24 03:01:00;;;;;;;3.47;1.13;;;;;;;9.94;67.03;98661.00;4999316;28;20216;-76
2024/01/24 03:03:27;;;;;;;3.78;1.60;;;;;;;10.03;67.25;98667.19;5000573;28;20241;-76
2024/01/24 03:05:56;;;;;;;3.28;1.42;;;;;;;9.96;67.35;98661.69;5014830;28;20656;-76
2024/01/24 03:08:22;;;;;;;2.70;1.30;;;;;;;10.05;67.36;98667.84;4997147;28;20223;-76
2024/01/24 03:10:49;;;;;;;3.13;1.20;;;;;;;9.99;67.58;98669.41;4994874;28;20637;-77
2024/01/24 03:13:18;;;;;;;4.20;1.70;;;;;;;9.92;67.42;98673.03;4999348;28;20206;-76
2024/01/24 03:15:46;;;;;;;1.83;1.10;;;;;;;9.89;67.89;98673.41;5000183;28;20199;-76
2024/01/24 03:18:12;;;;;;;4.30;2.05;;;;;;;9.96;67.78;98667.09;5005627;28;20340;-77
2024/01/24 03:20:39;;;;;;;2.63;1.25;;;;;;;9.94;68.31;98671.00;5000032;28;20206;-76
2024/01/24 03:23:06;;;;;;;3.95;1.00;;;;;;;9.97;68.06;98671.47;5004286;28;20220;-77
2024/01/24 03:25:32;;;;;;;2.13;1.20;;;;;;;10.06;67.96;98680.34;4998544;28;20546;-76
2024/01/24 03:27:59;;;;;;;2.38;1.10;;;;;;;10.06;67.72;98680.34;4997205;28;20270;-76
2024/01/24 03:30:25;;;;;;;2.97;1.17;;;;;;;10.08;68.02;98679.13;4997959;28;20211;-76
2024/01/24 03:32:53;;;;;;;1.77;0.93;;;;;;;10.14;67.89;98676.72;5001480;28;20210;-76
2024/01/24 03:35:20;;;;;;;1.52;0.93;;;;;;;10.15;68.25;98678.38;4999264;28;20310;-76
2024/01/24 03:37:46;;;;;;;2.30;1.15;;;;;;;10.15;68.20;98676.53;5000951;28;20203;-76
2024/01/24 03:40:13;;;;;;;2.05;1.10;;;;;;;10.25;68.03;98679.00;5000066;28;20293;-76
2024/01/24 03:42:39;;;;;;;1.60;1.00;;;;;;;10.24;68.12;98685.44;4998989;28;20213;-77
2024/01/24 03:45:07;;;;;;;2.10;1.20;;;;;;;10.26;68.07;98675.28;5012461;28;20685;-76
2024/01/24 03:47:34;;;;;;;2.17;1.33;;;;;;;10.30;68.06;98682.00;4997636;28;20233;-77
2024/01/24 03:50:02;;;;;;;3.20;1.30;;;;;;;10.31;68.19;98667.47;4998704;28;20300;-76
2024/01/24 03:52:29;;;;;;;2.15;1.15;;;;;;;10.33;68.09;98660.84;4997726;28;20209;-76
2024/01/24 03:54:55;;;;;;;3.95;1.10;;;;;;;10.40;68.07;98661.75;4996909;28;20215;-77
2024/01/24 03:57:23;;;;;;;1.77;1.00;;;;;;;10.47;68.11;98661.84;5000886;28;20206;-76
2024/01/24 03:59:49;;;;;;;2.92;1.50;;;;;;;10.40;68.22;98656.34;4998370;28;20302;-76
2024/01/24 04:02:16;;;;;;;2.63;1.00;;;;;;;10.57;67.93;98656.16;4997817;28;20453;-77
2024/01/24 04:04:43;;;;;;;4.25;1.30;;;;;;;10.59;68.10;98665.78;4997902;28;20209;-76
2024/01/24 04:07:11;;;;;;;3.55;1.23;;;;;;;10.53;68.20;98661.13;4997405;28;20325;-77
2024/01/24 04:09:37;;;;;;;2.60;1.00;;;;;;;10.50;68.63;98661.47;5000588;28;20206;-76
2024/01/24 04:12:04;;;;;;;2.70;0.90;;;;;;;10.52;68.63;98659.44;4998036;28;20209;-77
2024/01/24 04:14:31;;;;;;;3.45;1.08;;;;;;;10.53;68.77;98668.41;4998948;28;20239;-77
2024/01/24 04:16:58;;;;;;;2.70;1.10;;;;;;;10.54;68.72;98667.38;4995639;28;20595;-76
2024/01/24 04:19:25;;;;;;;2.65;1.10;;;;;;;10.55;68.80;98672.59;4996048;28;20206;-76
2024/01/24 04:21:52;;;;;;;3.58;1.17;;;;;;;10.54;68.81;98681.75;4995465;28;20205;-77
2024/01/24 04:24:20;;;;;;;4.50;1.50;;;;;;;10.44;69.47;98686.56;5012284;28;20213;-76
2024/01/24 04:26:46;;;;;;;2.90;1.33;;;;;;;10.52;69.20;98681.09;4994887;28;20326;-76
2024/01/24 04:29:13;;;;;;;5.50;1.30;;;;;;;10.53;69.22;98677.34;4998546;28;20203;-76
2024/01/24 04:31:39;;;;;;;2.65;1.10;;;;;;;10.51;69.41;98678.56;4996721;28;20949;-77
2024/01/24 04:34:06;;;;;;;3.25;1.40;;;;;;;10.60;69.41;98681.00;4979371;28;20286;-77
2024/01/24 04:36:33;;;;;;;1.90;1.00;;;;;;;10.68;69.40;98680.06;4993832;28;20232;-76
2024/01/24 04:39:00;;;;;;;2.08;1.05;;;;;;;10.63;69.47;98680.63;4995763;28;20205;-77
2024/01/24 04:41:28;;;;;;;4.15;1.02;;;;;;;10.67;69.25;98689.22;4997234;28;20202;-76
2024/01/24 04:43:55;;;;;;;3.90;1.50;;;;;;;10.71;69.35;98680.53;5013767;28;20294;-77
2024/01/24 04:46:22;;;;;;;2.10;1.13;;;;;;;10.80;69.09;98683.13;5002057;28;20207;-77
2024/01/24 04:48:49;;;;;;;3.78;1.55;;;;;;;10.79;69.23;98693.13;4998603;28;20241;-76
2024/01/24 04:51:15;;;;;;;2.13;1.20;;;;;;;11.01;68.67;98699.47;5018822;28;20289;-78
2024/01/24 04:53:42;;;;;;;3.20;1.33;;;;;;;10.91;68.92;98693.50;4999763;28;20206;-79
2024/01/24 04:56:08;;;;;;;3.28;1.23;;;;;;;10.78;69.49;98677.91;4999793;28;20520;-79
2024/01/24 04:58:37;;;;;;;1.30;1.00;;;;;;;10.83;69.47;98677.34;5000288;28;20314;-79
2024/01/24 05:01:03;;;;;;;3.13;1.27;;;;;;;10.88;69.58;98673.03;4990733;28;20295;-79
2024/01/24 05:03:30;;;;;;;3.17;1.38;;;;;;;10.94;69.26;98693.13;5017602;28;20609;-79
2024/01/24 05:05:56;;;;;;;2.92;1.65;;;;;;;11.00;69.14;98684.25;5000761;28;20205;-79
2024/01/24 05:08:23;;;;;;;2.15;1.00;;;;;;;10.95;69.57;98670.44;5006534;28;20225;-79
2024/01/24 05:10:50;;;;;;;3.40;1.60;;;;;;;10.84;71.29;98689.84;5006252;28;20194;-78
2024/01/24 05:13:17;;;;;;;2.17;1.20;;;;;;;11.00;70.46;98673.41;4999971;28;20282;-74
2024/01/24 05:15:45;;;;;;;2.17;1.15;;;;;;;10.97;70.76;98676.50;5014952;28;20207;-74
2024/01/24 05:18:12;;;;;;;2.58;1.10;;;;;;;11.08;71.84;98665.16;5002245;28;20215;-74
2024/01/24 05:20:39;;;;;;;3.65;1.40;;;;;;;11.17;72.25;98687.56;5009637;28;20207;-74
2024/01/24 05:23:07;;;;;;;2.08;1.42;;;;;;;11.19;73.63;98694.47;4999828;28;20665;-74
2024/01/24 05:25:35;;;;;;;6.35;1.60;;;;;;;11.40;74.22;98691.81;5003871;28;20207;-74
2024/01/24 05:28:02;;;;;;;2.30;1.10;;;;;;;11.62;74.73;98697.28;5003395;28;20235;-74
2024/01/24 05:30:28;;;;;;;2.03;1.10;;;;;;;11.79;74.17;98674.31;5000373;28;20666;-74
2024/01/24 05:32:57;;;;;;;2.00;1.30;;;;;;;11.85;73.90;98668.09;4988408;28;20216;-75
2024/01/24 05:35:24;;;;;;;1.70;1.10;;;;;;;12.01;73.23;98650.72;4990922;28;20605;-77
2024/01/24 05:37:51;;;;;;;2.13;1.20;;;;;;;12.03;72.79;98656.78;4994217;28;20621;-77
2024/01/24 05:40:18;;;;;;;2.97;1.37;;;;;;;11.99;72.50;98663.66;4995586;28;20623;-77
2024/01/24 05:42:46;;;;;;;2.70;1.30;;;;;;;11.96;72.72;98670.31;4991514;28;20642;-77
2024/01/24 05:45:13;;;;;;;2.97;1.43;;;;;;;12.01;72.34;98678.69;4991159;28;20645;-77
2024/01/24 05:47:40;;;;;;;2.50;1.10;;;;;;;12.00;72.37;98670.75;4975181;28;20663;-76
2024/01/24 05:50:12;;;;;;;2.37;1.27;;;;;;;11.96;72.39;98664.03;4977833;28;20657;-78
2024/01/24 05:52:40;;;;;;;1.83;1.10;;;;;;;11.95;72.37;98646.91;4995073;28;20642;-78
2024/01/24 05:55:07;;;;;;;1.80;1.10;;;;;;;11.93;72.16;98643.56;4990831;28;21285;-77
2024/01/24 05:57:34;;;;;;;2.73;1.50;;;;;;;11.97;72.13;98611.47;5001656;28;20638;-77
2024/01/24 06:00:01;;;;;;;3.03;1.47;;;;;;;11.88;72.05;98627.03;5002747;28;20633;-75
2024/01/24 06:02:29;;;;;;;1.90;1.00;;;;;;;11.87;72.36;98654.34;5003491;28;20769;-75
2024/01/24 06:05:00;;;;;;;2.00;1.13;;;;;;;11.94;72.00;98634.41;5000360;28;20645;-81
2024/01/24 06:07:28;;;;;;;2.17;1.13;;;;;;;12.00;71.74;98639.03;5000827;28;20644;-77
2024/01/24 06:09:55;;;;;;;3.30;1.23;;;;;;;12.01;71.87;98645.31;5002674;28;20723;-76
2024/01/24 06:12:22;;;;;;;1.00;0.90;;;;;;;12.00;71.90;98651.75;5001032;28;20634;-77
2024/01/24 06:14:48;;;;;;;1.07;0.80;;;;;;;12.01;71.58;98651.56;5011914;28;20630;-76
2024/01/24 06:17:15;;;;;;;1.07;0.97;;;;;;;12.02;71.56;98658.66;4999082;28;20653;-77
2024/01/24 06:19:42;;;;;;;1.53;1.00;;;;;;;12.01;71.96;98664.28;5002597;28;21198;-76
2024/01/24 06:22:09;;;;;;;5.07;1.10;;;;;;;12.02;72.04;98669.50;4999607;28;20641;-77
2024/01/24 06:24:38;;;;;;;1.20;1.00;;;;;;;12.07;71.75;98658.91;5015257;28;20908;-76
2024/01/24 06:27:05;;;;;;;1.40;1.10;;;;;;;12.03;72.16;98671.19;4999919;28;21060;-77
2024/01/24 06:29:32;;;;;;;1.77;0.80;;;;;;;12.09;72.05;98662.25;4998920;28;20675;-76
2024/01/24 06:31:58;;;;;;;1.20;0.83;;;;;;;12.11;72.04;98662.91;4995726;28;20928;-77
2024/01/24 06:34:26;;;;;;;1.63;0.83;;;;;;;12.18;72.03;98668.38;4996253;28;20638;-76
2024/01/24 06:36:53;;;;;;;0.90;0.60;;;;;;;12.14;72.34;98649.97;4997629;28;21038;-76
2024/01/24 06:39:20;;;;;;;1.23;0.90;;;;;;;12.18;72.16;98640.41;4996333;28;20625;-76
2024/01/24 06:41:47;;;;;;;1.20;0.80;;;;;;;12.21;72.00;98645.44;4994972;28;20642;-76
2024/01/24 06:44:14;;;;;;;1.00;0.90;;;;;;;12.26;72.14;98653.84;4995288;28;20622;-77
2024/01/24 06:46:42;;;;;;;1.17;0.80;;;;;;;12.18;72.60;98667.53;4993366;28;20670;-77
2024/01/24 06:49:10;;;;;;;1.90;1.00;;;;;;;12.08;72.96;98643.47;4989783;28;20669;-76
2024/01/24 06:51:37;;;;;;;1.00;0.90;;;;;;;12.06;73.48;98654.50;4994397;28;20686;-76
2024/01/24 06:54:04;;;;;;;2.03;0.83;;;;;;;11.92;74.76;98627.47;4994657;28;20706;-76
2024/01/24 06:56:30;;;;;;;1.27;0.70;;;;;;;11.82;75.45;98646.78;4998474;28;20640;-75
2024/01/24 06:58:59;;;;;;;0.82;0.82;;;;;;;11.79;75.57;98658.03;4981588;28;20277;-76
2024/01/24 07:01:26;;;;;;;3.10;0.70;;;;;;;11.77;75.60;98641.13;4999852;28;20698;-75
2024/01/24 07:03:53;;;;;;;1.33;0.60;;;;;;;11.79;75.33;98625.50;5002199;28;20661;-76
2024/01/24 07:06:19;;;;;;;1.00;0.90;;;;;;;11.88;74.73;98612.63;4992465;28;20639;-76
2024/01/24 07:08:46;;;;;;;1.00;0.70;;;;;;;11.95;74.42;98630.66;4993897;28;20219;-76
2024/01/24 07:11:13;;;;;;;1.33;0.73;;;;;;;11.98;74.38;98619.41;4999819;28;20209;-75
2024/01/24 07:13:39;;;;;;;0.70;0.60;;;;;;;12.09;73.89;98642.41;4995282;28;20641;-77
2024/01/24 07:16:07;;;;;;;0.70;0.60;;;;;;;12.19;73.33;98620.38;4996502;28;20643;-76
2024/01/24 07:18:34;;;;;;;1.30;0.73;;;;;;;12.24;73.27;98616.03;4994874;28;21150;-76
2024/01/24 07:21:01;;;;;;;1.00;0.60;;;;;;;12.30;72.87;98625.28;4996779;28;20626;-76
2024/01/24 07:23:27;;;;;;;0.90;0.60;;;;;;;12.36;72.46;98633.44;4998435;28;20634;-76
2024/01/24 07:25:54;;;;;;;1.07;0.80;;;;;;;12.40;72.28;98614.88;5012597;28;20740;-76
2024/01/24 07:28:21;;;;;;;1.63;0.60;;;;;;;12.47;72.11;98631.22;4978647;28;20670;-76
2024/01/24 07:30:47;;;;;;;1.23;0.70;;;;;;;12.55;71.82;98639.19;5003776;28;20629;-76
2024/01/24 07:33:15;;;;;;;0.80;0.60;;;;;;;12.61;71.54;98641.13;4993951;28;20641;-76
2024/01/24 07:35:42;;;;;;;0.87;0.60;;;;;;;12.55;72.08;98625.63;4997674;28;20718;-76
2024/01/24 07:38:08;;;;;;;1.23;0.60;;;;;;;12.58;71.85;98634.22;4998846;28;20636;-76
2024/01/24 07:40:37;;;;;;;1.13;0.70;;;;;;;12.57;72.06;98640.69;4982309;28;20642;-76
2024/01/24 07:43:04;;;;;;;1.40;0.67;;;;;;;12.54;72.17;98630.22;4998585;28;20645;-76
2024/01/24 07:45:30;;;;;;;1.10;0.60;;;;;;;12.57;71.89;98634.41;5016569;28;20650;-76
2024/01/24 07:47:57;;;;;;;2.13;0.60;;;;;;;12.60;72.13;98634.00;4998604;28;20639;-76
2024/01/24 07:50:27;;;;;;;0.73;0.70;;;;;;;12.61;72.32;98639.25;4999207;28;20710;-75
2024/01/24 07:52:53;;;;;;;0.60;0.60;;;;;;;12.59;72.30;98665.75;4993547;28;20646;-75
2024/01/24 07:55:21;;;;;;;0.70;0.60;;;;;;;12.57;72.39;98640.69;4999029;28;21183;-75
2024/01/24 07:57:48;;;;;;;1.43;0.60;;;;;;;12.56;72.37;98630.84;4997313;28;21201;-75
2024/01/24 08:00:16;;;;;;;0.70;0.53;;;;;;;12.56;72.65;98649.03;4996880;28;20622;-74
2024/01/24 08:02:44;;;;;;;0.73;0.60;;;;;;;12.60;72.59;98648.44;4992700;28;20649;-74
2024/01/24 08:05:12;;;;;;;0.83;0.70;;;;;;;12.64;72.39;98676.88;5012173;28;20637;-75
2024/01/24 08:07:41;;;;;;;1.10;0.70;;;;;;;12.64;72.54;98659.72;5000462;28;20637;-74
2024/01/24 08:10:10;;;;;;;1.40;0.80;;;;;;;12.60;73.15;98664.72;5000388;28;20777;-74
2024/01/24 08:12:38;;;;;;;1.53;0.83;;;;;;;12.55;73.11;98669.91;4998866;28;20654;-74
2024/01/24 08:15:05;;;;;;;1.73;0.80;;;;;;;12.48;73.42;98679.88;5013061;28;20633;-75
2024/01/24 08:17:32;;;;;;;1.60;0.60;;;;;;;12.54;73.27;98689.94;4982398;28;20645;-76
2024/01/24 08:19:59;;;;;;;0.93;0.60;;;;;;;12.54;73.53;98681.81;5003334;28;20728;-76
2024/01/24 08:22:28;;;;;;;0.90;0.50;;;;;;;12.53;73.39;98687.44;4984661;28;20658;-74
2024/01/24 08:24:56;;;;;;;0.60;0.60;;;;;;;12.57;73.16;98673.25;4997622;28;20673;-74
2024/01/24 08:27:22;;;;;;;1.23;0.80;;;;;;;12.60;73.30;98674.75;4994131;28;20645;-74
2024/01/24 08:29:49;;;;;;;1.03;0.70;;;;;;;12.64;72.93;98668.72;4996391;28;20646;-74
2024/01/24 08:32:16;;;;;;;0.70;0.70;;;;;;;12.65;72.79;98672.28;4999157;28;20624;-75
2024/01/24 08:34:43;;;;;;;0.93;0.60;;;;;;;12.62;73.01;98692.53;5004559;28;20712;-74
2024/01/24 08:37:10;;;;;;;0.70;0.60;;;;;;;12.62;73.19;98678.94;5002820;28;20614;-74
2024/01/24 08:39:38;;;;;;;1.60;0.60;;;;;;;12.61;73.01;98685.41;5000294;28;20637;-75
2024/01/24 08:42:07;;;;;;;1.20;0.70;;;;;;;12.70;73.09;98700.47;4999522;28;20629;-75
2024/01/24 08:44:33;;;;;;;0.60;0.50;;;;;;;12.69;73.05;98687.94;5002162;28;20622;-75
2024/01/24 08:47:00;;;;;;;1.07;0.60;;;;;;;12.77;73.13;98722.25;4996046;28;20988;-75
2024/01/24 08:49:26;;;;;;;3.30;0.70;;;;;;;12.74;73.34;98715.34;4997435;28;20658;-74
2024/01/24 08:51:53;;;;;;;0.60;0.50;;;;;;;12.73;73.46;98710.94;4997714;28;20737;-74
2024/01/24 08:54:19;;;;;;;0.80;0.60;;;;;;;12.65;73.59;98697.56;4998892;28;20720;-75
2024/01/24 08:56:47;;;;;;;0.67;0.57;;;;;;;12.76;73.33;98688.81;5000241;28;20724;-74
2024/01/24 08:59:15;;;;;;;1.03;0.50;;;;;;;12.76;73.43;98694.25;5002100;28;20626;-75
2024/01/24 09:01:42;;;;;;;0.50;0.50;;;;;;;12.74;73.58;98696.34;4994217;28;21228;-74
2024/01/24 09:04:09;;;;;;;0.60;0.50;;;;;;;12.78;73.62;98694.91;4995956;28;20630;-75
2024/01/24 09:06:35;;;;;;;0.70;0.60;;;;;;;12.64;74.32;98719.47;4998557;28;20633;-74
2024/01/24 09:09:02;;;;;;;0.77;0.57;;;;;;;12.65;74.28;98708.41;4995637;28;20743;-75
2024/01/24 09:11:29;;;;;;;1.70;0.57;;;;;;;12.61;74.71;98720.72;5001585;28;21465;-74
2024/01/24 09:13:56;;;;;;;0.50;0.47;;;;;;;12.58;75.23;98706.69;4999834;28;21789;-74
2024/01/24 09:16:24;;;;;;;0.57;0.50;;;;;;;12.52;75.54;98713.75;4998708;28;21067;-74
2024/01/24 09:18:50;;;;;;;0.80;0.50;;;;;;;12.53;75.45;98710.00;4997653;28;20697;-76
2024/01/24 09:21:17;;;;;;;1.17;0.50;;;;;;;12.61;75.18;98720.72;5001159;28;21319;-77
2024/01/24 09:23:43;;;;;;;0.70;0.50;;;;;;;12.58;75.53;98702.09;4999146;28;21042;-77
2024/01/24 09:26:10;;;;;;;0.50;0.50;;;;;;;12.50;75.96;98701.41;5008876;28;20638;-77
2024/01/24 09:28:36;;;;;;;0.90;0.50;;;;;;;12.49;76.24;98702.44;5000450;28;20757;-75
2024/01/24 09:31:03;;;;;;;0.60;0.50;;;;;;;12.52;75.98;98708.31;4999965;28;20733;-76
2024/01/24 09:33:31;;;;;;;0.60;0.50;;;;;;;12.48;76.46;98706.19;5007403;28;20721;-74
2024/01/24 09:35:58;;;;;;;0.50;0.40;;;;;;;12.46;76.92;98700.94;4994988;28;20664;-74
2024/01/24 09:38:24;;;;;;;0.60;0.53;;;;;;;12.54;77.15;98699.97;4997989;28;21003;-75
2024/01/24 09:40:51;;;;;;;1.17;0.57;;;;;;;12.49;77.12;98697.84;4996124;28;20753;-75
2024/01/24 09:43:20;;;;;;;0.60;0.57;;;;;;;12.47;77.56;98709.94;4998524;28;21310;-75
2024/01/24 09:45:49;;;;;;;0.70;0.50;;;;;;;12.55;77.41;98696.22;5011138;28;20636;-75
2024/01/24 09:48:16;;;;;;;0.50;0.50;;;;;;;12.51;77.64;98689.50;5013663;28;20629;-75
2024/01/24 09:50:45;;;;;;;0.97;0.50;;;;;;;12.48;77.80;98693.44;4999564;28;20672;-74
2024/01/24 09:53:16;;;;;;;0.53;0.50;;;;;;;12.56;77.76;98698.75;5009815;28;20732;-75
2024/01/24 09:55:42;;;;;;;0.80;0.60;;;;;;;12.56;77.70;98687.03;4998179;28;20661;-74
2024/01/24 09:58:09;;;;;;;0.50;0.50;;;;;;;12.62;77.53;98692.53;5015878;28;20742;-74
2024/01/24 10:00:35;;;;;;;0.60;0.40;;;;;;;12.75;77.33;98706.16;4996734;28;20649;-74
2024/01/24 10:03:02;;;;;;;1.00;0.50;;;;;;;12.68;77.01;98672.69;4997496;28;21162;-74
2024/01/24 10:05:29;;;;;;;0.53;0.47;;;;;;;12.58;77.30;98693.94;5007629;28;20673;-74
2024/01/24 10:07:59;;;;;;;0.70;0.50;;;;;;;12.50;77.67;98672.38;5008550;28;20702;-74
2024/01/24 10:10:26;;;;;;;0.60;0.47;;;;;;;12.49;77.57;98686.16;4996574;28;20744;-74
2024/01/24 10:12:53;;;;;;;0.50;0.40;;;;;;;12.63;77.03;98688.75;4998307;28;20624;-77
2024/01/24 10:15:21;;;;;;;0.50;0.50;;;;;;;12.66;76.83;98715.53;4998812;28;20737;-76
2024/01/24 10:17:49;;;;;;;0.60;0.40;;;;;;;12.62;76.95;98708.81;4995580;28;20746;-77
2024/01/24 10:20:15;;;;;;;0.50;0.43;;;;;;;12.62;76.95;98719.69;4996169;28;21035;-75
2024/01/24 10:22:44;;;;;;;0.60;0.40;;;;;;;12.60;77.37;98727.19;4997449;28;20630;-74
2024/01/24 10:25:12;;;;;;;1.17;0.50;;;;;;;12.64;77.20;98700.47;5013689;28;20649;-75
2024/01/24 10:27:39;;;;;;;0.50;0.40;;;;;;;12.77;76.92;98693.22;4997309;28;20725;-74
2024/01/24 10:30:10;;;;;;;0.70;0.50;;;;;;;13.03;75.94;98716.97;4997835;28;21520;-74
2024/01/24 10:32:37;;;;;;;0.40;0.40;;;;;;;13.11;75.42;98715.97;4997728;28;20641;-75
2024/01/24 10:35:04;;;;;;;0.70;0.60;;;;;;;12.94;76.04;98730.94;4998636;28;20644;-75
2024/01/24 10:37:32;;;;;;;0.60;0.50;;;;;;;12.94;76.24;98723.63;4997683;28;20729;-75
2024/01/24 10:40:04;;;;;;;1.07;0.50;;;;;;;12.98;76.00;98710.50;4999493;28;20614;-75
2024/01/24 10:42:35;;;;;;;0.77;0.60;;;;;;;13.01;75.70;98734.50;4999000;28;20621;-74
2024/01/24 10:45:04;;;;;;;0.87;0.73;;;;;;;13.01;75.66;98757.09;4993088;28;20642;-74
2024/01/24 10:47:31;;;;;;;1.10;0.60;;;;;;;12.74;78.11;98764.25;5008419;28;20637;-74
2024/01/24 10:49:57;;;;;;;0.60;0.50;;;;;;;12.29;82.70;98768.28;4987987;28;20657;-74
2024/01/24 10:52:26;;;;;;;0.50;0.40;;;;;;;12.13;84.46;98759.56;4989618;28;20708;-74
2024/01/24 10:54:54;;;;;;;0.50;0.50;;;;;;;12.13;85.62;98738.69;4993718;28;20654;-74
2024/01/24 10:57:21;;;;;;;0.50;0.40;;;;;;;12.23;85.59;98749.22;5000263;28;21255;-73
2024/01/24 10:59:51;;;;;;;0.60;0.50;;;;;;;12.28;85.02;98738.63;5016127;28;20614;-73
2024/01/24 11:02:18;;;;;;;0.50;0.40;;;;;;;12.26;83.97;98748.81;4997298;28;21163;-74
2024/01/24 11:04:45;;;;;;;0.70;0.40;;;;;;;12.24;80.78;98751.75;4992664;28;20661;-74
2024/01/24 11:07:15;;;;;;;0.70;0.50;;;;;;;12.35;80.33;98740.34;4994134;28;20999;-74
2024/01/24 11:09:53;;;;;;;0.70;0.50;;;;;;;12.44;79.52;98744.59;4988731;28;20669;-76
2024/01/24 11:12:19;;;;;;;1.43;0.60;;;;;;;12.56;78.95;98734.03;4979675;28;20645;-74
2024/01/24 11:14:46;;;;;;;0.60;0.60;;;;;;;12.58;77.36;98747.41;5014145;28;20665;-74
2024/01/24 11:17:15;;;;;;;0.60;0.50;;;;;;;12.39;78.73;98752.47;5007713;28;20985;-74
2024/01/24 11:19:42;;;;;;;2.30;0.60;;;;;;;12.29;80.41;98765.56;5000080;28;20688;-74
2024/01/24 11:22:10;;;;;;;0.90;0.60;;;;;;;12.20;81.92;98769.44;5006077;28;20631;-74
2024/01/24 11:24:50;;;;;;;0.97;0.60;;;;;;;12.19;83.90;98772.34;4996063;28;20630;-74
2024/01/24 11:27:32;;;;;;;0.77;0.50;;;;;;;11.95;83.66;98755.44;4998607;28;21197;-74
2024/01/24 11:30:00;;;;;;;1.52;0.70;;;;;;;11.87;84.66;98760.97;4999460;28;21085;-74
2024/01/24 11:33:05;;;;;;;2.60;0.60;;;;;;;11.82;84.76;98762.56;5001003;28;20817;-74
2024/01/24 11:35:37;;;;;;;1.03;0.50;;;;;;;11.82;86.49;98773.44;5012237;28;20623;-74